Time;durP1;ratioP1;P1;durP2;ratioP2;P2;SDS_P1;SDS_P2;PMS_P1;PMS_P2;Temp;Humidity;BMP_temperature;BMP_pressure;BME280_temperature;BME280_humidity;BME280_pressure;Samples;Min_cycle;Max_cycle;Signal;HPM_P1;HPM_P2
2023/03/15 00:00:48;;;;;;;9.48;2.33;;;3.20;99.90;;;;;;4957068;28;91734;-75
2023/03/15 00:03:15;;;;;;;4.63;1.95;;;3.20;99.90;;;;;;4955515;28;95614;-75
2023/03/15 00:05:44;;;;;;;5.82;1.70;;;3.20;99.90;;;;;;4956506;28;92789;-74
2023/03/15 00:08:12;;;;;;;6.50;1.73;;;3.20;99.90;;;;;;4955670;28;94869;-75
2023/03/15 00:10:43;;;;;;;5.63;1.60;;;3.20;99.90;;;;;;4955285;28;99579;-75
2023/03/15 00:13:11;;;;;;;9.52;1.75;;;3.20;99.90;;;;;;4956913;28;93120;-75
2023/03/15 00:15:46;;;;;;;9.45;1.90;;;3.20;99.90;;;;;;4971610;28;92955;-75
2023/03/15 00:18:14;;;;;;;5.47;1.25;;;3.30;99.90;;;;;;4955742;28;92473;-75
2023/03/15 00:20:42;;;;;;;6.28;1.67;;;3.20;99.90;;;;;;4971536;28;92572;-75
2023/03/15 00:23:09;;;;;;;6.50;3.28;;;3.20;99.90;;;;;;4956493;28;93344;-75
2023/03/15 00:25:36;;;;;;;10.13;1.67;;;3.20;99.90;;;;;;4955273;28;94592;-75
2023/03/15 00:28:04;;;;;;;4.82;1.58;;;3.20;99.90;;;;;;4971661;28;92409;-75
2023/03/15 00:30:31;;;;;;;5.05;1.63;;;3.30;99.90;;;;;;4956547;28;92457;-75
2023/03/15 00:32:58;;;;;;;8.05;1.48;;;3.30;99.90;;;;;;4953560;28;98185;-74
2023/03/15 00:35:25;;;;;;;6.00;1.10;;;3.30;99.90;;;;;;4956378;28;95278;-74
2023/03/15 00:37:55;;;;;;;5.07;1.30;;;3.30;99.90;;;;;;4954813;28;92579;-75
2023/03/15 00:40:23;;;;;;;5.32;1.25;;;3.40;99.90;;;;;;4954968;28;92531;-75
2023/03/15 00:42:51;;;;;;;6.13;1.42;;;3.50;99.90;;;;;;4970960;28;95936;-75
2023/03/15 00:45:20;;;;;;;6.85;1.20;;;3.60;99.90;;;;;;4954628;28;95429;-75
2023/03/15 00:47:51;;;;;;;7.72;1.73;;;3.70;99.90;;;;;;4954897;28;92526;-75
2023/03/15 00:50:21;;;;;;;8.15;1.67;;;3.80;99.90;;;;;;4956937;28;92199;-75
2023/03/15 00:52:48;;;;;;;6.25;1.42;;;3.90;99.90;;;;;;4954707;28;95621;-75
2023/03/15 00:55:17;;;;;;;6.32;1.33;;;3.90;99.90;;;;;;4970804;28;95927;-75
2023/03/15 00:57:45;;;;;;;7.45;1.50;;;3.90;99.90;;;;;;4953566;28;94865;-75
2023/03/15 01:00:22;;;;;;;6.45;1.67;;;3.80;99.90;;;;;;4954550;28;92491;-75
2023/03/15 01:02:50;;;;;;;6.43;1.27;;;3.80;99.90;;;;;;4954298;28;95920;-75
2023/03/15 01:05:17;;;;;;;4.45;1.50;;;3.60;99.90;;;;;;4954516;28;95608;-75
2023/03/15 01:07:44;;;;;;;6.32;1.65;;;3.60;99.90;;;;;;4954606;28;92584;-75
2023/03/15 01:10:13;;;;;;;10.57;1.88;;;3.50;99.90;;;;;;4970803;28;92538;-75
2023/03/15 01:12:40;;;;;;;4.30;1.20;;;3.50;99.90;;;;;;4954535;28;95987;-75
2023/03/15 01:15:12;;;;;;;5.35;1.73;;;3.50;99.90;;;;;;4955885;28;93029;-75
2023/03/15 01:17:40;;;;;;;7.63;1.30;;;3.40;99.90;;;;;;4954678;28;92488;-75
2023/03/15 01:20:09;;;;;;;3.25;1.45;;;3.40;99.90;;;;;;4955768;28;92473;-75
2023/03/15 01:22:35;;;;;;;4.93;1.30;;;3.40;99.90;;;;;;4953030;28;98386;-75
2023/03/15 01:25:03;;;;;;;8.35;1.40;;;3.30;99.90;;;;;;4953748;28;97954;-75
2023/03/15 01:27:30;;;;;;;7.80;1.95;;;3.30;99.90;;;;;;4954266;28;93101;-75
2023/03/15 01:29:57;;;;;;;6.25;1.52;;;3.20;99.90;;;;;;4954231;28;92920;-75
2023/03/15 01:32:25;;;;;;;4.90;1.30;;;3.20;99.90;;;;;;4954226;28;95966;-75
2023/03/15 01:34:52;;;;;;;4.43;1.40;;;3.10;99.90;;;;;;4954026;28;93152;-75
2023/03/15 01:37:23;;;;;;;8.02;1.50;;;3.10;99.90;;;;;;4954317;28;93072;-75
2023/03/15 01:39:50;;;;;;;4.10;1.10;;;3.10;99.90;;;;;;4971033;28;91787;-75
2023/03/15 01:42:17;;;;;;;5.72;1.45;;;3.00;99.90;;;;;;4953826;28;95895;-75
2023/03/15 01:44:49;;;;;;;4.97;1.20;;;3.00;99.90;;;;;;4955519;28;92997;-75
2023/03/15 01:47:17;;;;;;;8.30;1.83;;;3.10;99.90;;;;;;4969149;28;94883;-75
2023/03/15 01:49:47;;;;;;;5.72;1.20;;;3.00;99.90;;;;;;4954570;28;92582;-75
2023/03/15 01:52:24;;;;;;;5.75;1.27;;;3.00;99.90;;;;;;4940896;28;95896;-75
2023/03/15 01:55:09;;;;;;;6.18;1.42;;;3.00;99.90;;;;;;4957114;28;95522;-75
2023/03/15 01:57:54;;;;;;;10.23;1.73;;;3.00;99.90;;;;;;4957618;28;93002;-75
2023/03/15 02:00:23;;;;;;;3.40;1.42;;;3.00;99.90;;;;;;4957489;28;92508;-75
2023/03/15 02:03:08;;;;;;;7.22;1.10;;;3.00;99.90;;;;;;4957013;28;95588;-75
2023/03/15 02:05:44;;;;;;;5.85;1.20;;;3.00;99.90;;;;;;4955868;28;95216;-75
2023/03/15 02:08:18;;;;;;;4.03;1.52;;;3.00;99.90;;;;;;4973483;28;92556;-75
2023/03/15 02:10:49;;;;;;;5.82;2.60;;;3.00;99.90;;;;;;4973447;28;92517;-75
2023/03/15 02:13:22;;;;;;;6.60;1.60;;;3.00;99.90;;;;;;4971662;28;98143;-75
2023/03/15 02:15:52;;;;;;;7.57;1.55;;;2.90;99.90;;;;;;4956818;28;97908;-75
2023/03/15 02:18:25;;;;;;;6.28;1.15;;;2.90;99.90;;;;;;4957263;28;92519;-75
2023/03/15 02:21:30;;;;;;;10.02;1.63;;;2.90;99.90;;;;;;4941046;28;92556;-75
2023/03/15 02:24:09;;;;;;;7.40;1.83;;;2.90;99.90;;;;;;4956950;28;96062;-75
2023/03/15 02:26:43;;;;;;;6.20;1.10;;;2.80;99.90;;;;;;4956620;28;95377;-75
2023/03/15 02:29:11;;;;;;;5.10;1.40;;;2.80;99.90;;;;;;4958380;28;92923;-75
2023/03/15 02:31:38;;;;;;;6.68;1.00;;;2.80;99.90;;;;;;4958793;28;91762;-75
2023/03/15 02:34:06;;;;;;;5.43;1.00;;;2.80;99.90;;;;;;4956491;28;95909;-75
2023/03/15 02:36:35;;;;;;;8.77;1.10;;;2.80;99.90;;;;;;4956660;28;95237;-75
2023/03/15 02:39:13;;;;;;;4.63;0.73;;;2.80;99.90;;;;;;4955828;28;95046;-75
2023/03/15 02:41:44;;;;;;;5.50;1.30;;;2.80;99.90;;;;;;4956774;28;92445;-75
2023/03/15 02:44:15;;;;;;;5.60;1.15;;;2.70;99.90;;;;;;4957973;28;93013;-75
2023/03/15 02:46:44;;;;;;;6.95;1.50;;;2.80;99.90;;;;;;4972895;28;95672;-75
2023/03/15 02:49:13;;;;;;;7.88;0.90;;;2.70;99.90;;;;;;4973021;28;92973;-75
2023/03/15 02:51:40;;;;;;;8.65;1.40;;;2.70;99.90;;;;;;4958028;28;92371;-75
2023/03/15 02:54:07;;;;;;;13.25;1.65;;;2.70;99.90;;;;;;4972304;28;95729;-75
2023/03/15 02:56:34;;;;;;;9.48;1.35;;;2.60;99.90;;;;;;4956736;28;95291;-75
2023/03/15 02:59:01;;;;;;;8.27;1.45;;;2.60;99.90;;;;;;4956797;28;92507;-75
2023/03/15 03:01:30;;;;;;;3.97;1.20;;;2.60;99.90;;;;;;4956106;28;92517;-75
2023/03/15 03:03:57;;;;;;;5.00;1.10;;;2.60;99.90;;;;;;4955060;28;98340;-75
2023/03/15 03:06:24;;;;;;;7.25;1.40;;;2.60;99.90;;;;;;4955625;28;98086;-75
2023/03/15 03:08:52;;;;;;;8.07;1.17;;;2.60;99.90;;;;;;4940442;28;92556;-75
2023/03/15 03:11:19;;;;;;;12.27;1.23;;;2.60;99.90;;;;;;4972496;28;92500;-75
2023/03/15 03:13:46;;;;;;;6.68;1.20;;;2.70;99.90;;;;;;4956145;28;95622;-75
2023/03/15 03:16:13;;;;;;;11.75;1.52;;;2.60;99.90;;;;;;4955909;28;95495;-75
2023/03/15 03:18:41;;;;;;;7.88;1.20;;;2.60;99.90;;;;;;4956173;28;92531;-75
2023/03/15 03:21:09;;;;;;;10.07;1.88;;;2.60;99.90;;;;;;4956314;28;91888;-75
2023/03/15 03:23:36;;;;;;;3.67;1.10;;;2.60;99.90;;;;;;4955724;28;95815;-75
2023/03/15 03:26:15;;;;;;;7.63;1.48;;;2.50;99.90;;;;;;4955759;28;95573;-75
2023/03/15 03:28:45;;;;;;;7.15;1.63;;;2.50;99.90;;;;;;4955255;28;95424;-75
2023/03/15 03:31:20;;;;;;;2.38;1.23;;;2.50;99.90;;;;;;4955853;28;92556;-75
2023/03/15 03:33:50;;;;;;;6.43;1.77;;;2.40;99.90;;;;;;4971835;28;95319;-75
2023/03/15 03:36:17;;;;;;;7.13;1.75;;;2.40;99.90;;;;;;4955520;28;95502;-75
2023/03/15 03:38:45;;;;;;;6.93;1.10;;;2.40;99.90;;;;;;4955914;28;92544;-75
2023/03/15 03:41:14;;;;;;;7.50;1.20;;;2.40;99.90;;;;;;4955728;28;92473;-75
2023/03/15 03:43:41;;;;;;;6.85;1.27;;;2.30;99.90;;;;;;4955596;28;95220;-75
2023/03/15 03:46:08;;;;;;;3.05;0.70;;;2.30;99.90;;;;;;4955970;28;94032;-75
2023/03/15 03:48:41;;;;;;;5.18;1.38;;;2.30;99.90;;;;;;4955787;28;92554;-75
2023/03/15 03:51:08;;;;;;;7.03;1.63;;;2.20;99.90;;;;;;4955805;28;92542;-75
2023/03/15 03:53:34;;;;;;;6.35;1.10;;;2.30;99.90;;;;;;4953976;28;97960;-75
2023/03/15 03:56:06;;;;;;;5.53;1.05;;;2.20;99.90;;;;;;4955455;28;97726;-75
2023/03/15 03:58:34;;;;;;;5.93;1.20;;;2.20;99.90;;;;;;4955539;28;92421;-75
2023/03/15 04:01:12;;;;;;;3.38;0.70;;;2.20;99.90;;;;;;4940888;28;93002;-75
2023/03/15 04:03:39;;;;;;;6.00;1.20;;;2.20;99.90;;;;;;4955400;28;96665;-75
2023/03/15 04:06:15;;;;;;;7.47;1.30;;;2.20;99.90;;;;;;4954554;28;95524;-74
2023/03/15 04:08:44;;;;;;;7.07;1.40;;;2.20;99.90;;;;;;4955470;28;92483;-73
2023/03/15 04:11:16;;;;;;;7.60;1.20;;;2.20;99.90;;;;;;4955714;28;92321;-73
2023/03/15 04:13:49;;;;;;;3.88;1.00;;;2.20;99.90;;;;;;4970013;28;95545;-73
2023/03/15 04:16:16;;;;;;;6.63;1.17;;;2.20;99.90;;;;;;4954809;28;95277;-75
2023/03/15 04:19:11;;;;;;;5.32;1.77;;;2.10;99.90;;;;;;4952512;28;94967;-75
2023/03/15 04:21:46;;;;;;;5.47;1.20;;;2.10;99.90;;;;;;4971166;28;92695;-75
2023/03/15 04:24:38;;;;;;;6.35;1.25;;;2.10;99.90;;;;;;4959031;28;94324;-75
2023/03/15 04:27:13;;;;;;;2.85;1.00;;;2.10;99.90;;;;;;4955209;28;95532;-75
2023/03/15 04:29:58;;;;;;;7.97;1.30;;;2.10;99.90;;;;;;4956033;28;92545;-75
2023/03/15 04:32:37;;;;;;;8.32;1.05;;;2.10;99.90;;;;;;4954894;28;92521;-75
2023/03/15 04:35:22;;;;;;;5.60;1.17;;;2.10;99.90;;;;;;4954665;28;95544;-75
2023/03/15 04:37:56;;;;;;;5.78;1.30;;;2.10;99.90;;;;;;4956446;28;94968;-75
2023/03/15 04:40:45;;;;;;;4.63;1.00;;;2.10;99.90;;;;;;4954912;28;92500;-75
2023/03/15 04:43:30;;;;;;;5.68;1.88;;;2.00;99.90;;;;;;4968629;28;92530;-75
2023/03/15 04:46:31;;;;;;;3.13;1.00;;;2.00;99.90;;;;;;4931714;28;95609;-75
2023/03/15 04:49:14;;;;;;;8.95;1.30;;;2.00;99.90;;;;;;4954382;28;97882;-75
2023/03/15 04:52:00;;;;;;;3.58;1.48;;;2.00;99.90;;;;;;4954678;28;92461;-75
2023/03/15 04:54:47;;;;;;;4.28;1.38;;;2.00;99.90;;;;;;4925002;28;92494;-75
2023/03/15 04:57:23;;;;;;;10.05;1.20;;;2.00;99.90;;;;;;4955862;28;93214;-75
2023/03/15 05:00:13;;;;;;;3.05;0.88;;;2.00;99.90;;;;;;4955303;28;93038;-75
2023/03/15 05:02:58;;;;;;;5.35;1.20;;;2.00;99.90;;;;;;4955401;28;92413;-75
2023/03/15 05:05:44;;;;;;;6.07;0.88;;;2.00;99.90;;;;;;4968265;28;91808;-75
2023/03/15 05:08:32;;;;;;;6.60;1.33;;;2.00;99.90;;;;;;4947376;28;93218;-75
2023/03/15 05:11:04;;;;;;;8.63;1.00;;;2.00;99.90;;;;;;4955807;28;92527;-75
2023/03/15 05:13:55;;;;;;;11.52;1.52;;;2.00;99.90;;;;;;4966552;28;94876;-75
2023/03/15 05:16:58;;;;;;;9.23;1.55;;;1.90;99.90;;;;;;4935008;28;92555;-75
2023/03/15 05:19:34;;;;;;;;;;;1.90;99.90;;;;;;4970459;28;93114;-75
2023/03/15 05:22:17;;;;;;;3.97;1.10;;;1.80;99.90;;;;;;4984910;28;92587;-75
2023/03/15 05:25:10;;;;;;;5.88;1.45;;;1.80;99.90;;;;;;4953493;28;92597;-75
2023/03/15 05:28:03;;;;;;;5.25;1.40;;;1.80;99.90;;;;;;4955795;28;92424;-75
2023/03/15 05:31:01;;;;;;;6.82;1.17;;;1.80;99.90;;;;;;4939252;28;93069;-75
2023/03/15 05:33:47;;;;;;;8.15;1.23;;;1.70;99.90;;;;;;4958502;28;92553;-75
2023/03/15 05:36:40;;;;;;;7.03;1.38;;;1.80;99.90;;;;;;4949941;28;92518;-75
2023/03/15 05:39:26;;;;;;;4.72;0.90;;;1.70;99.90;;;;;;4959386;28;92474;-75
2023/03/15 05:42:24;;;;;;;4.22;1.70;;;1.70;99.90;;;;;;4941268;28;95555;-75
2023/03/15 05:44:55;;;;;;;3.45;1.30;;;1.70;99.90;;;;;;4957655;28;95190;-75
2023/03/15 05:47:28;;;;;;;3.50;0.98;;;1.70;99.90;;;;;;4958433;28;92490;-75
2023/03/15 05:50:01;;;;;;;5.00;1.33;;;1.70;99.90;;;;;;4956726;28;92529;-75
2023/03/15 05:52:55;;;;;;;6.97;1.50;;;1.70;99.90;;;;;;4941540;28;93234;-75
2023/03/15 05:55:43;;;;;;;3.70;1.02;;;1.80;99.90;;;;;;4957091;28;93872;-75
2023/03/15 05:58:29;;;;;;;6.35;1.08;;;1.80;99.90;;;;;;4943920;28;92527;-75
2023/03/15 06:01:03;;;;;;;8.70;1.48;;;1.80;99.90;;;;;;4971943;28;91925;-75
2023/03/15 06:03:52;;;;;;;7.53;1.30;;;1.90;99.90;;;;;;4951519;28;93056;-75
2023/03/15 06:06:24;;;;;;;4.70;1.63;;;1.90;99.90;;;;;;4956458;28;95013;-75
2023/03/15 06:08:51;;;;;;;2.58;1.10;;;2.00;99.90;;;;;;4939820;28;95045;-75
2023/03/15 06:11:18;;;;;;;4.30;1.40;;;2.10;99.90;;;;;;4957252;28;92798;-75
2023/03/15 06:13:45;;;;;;;4.72;1.40;;;2.10;99.90;;;;;;4972750;28;95969;-75
2023/03/15 06:16:24;;;;;;;4.65;1.10;;;2.30;99.90;;;;;;4956650;28;95522;-75
2023/03/15 06:18:53;;;;;;;4.72;1.73;;;2.40;99.90;;;;;;4956717;28;92544;-75
2023/03/15 06:21:20;;;;;;;5.43;1.17;;;2.40;99.90;;;;;;4973444;28;92509;-75
2023/03/15 06:23:48;;;;;;;6.82;1.60;;;2.50;99.90;;;;;;4956716;28;94158;-75
2023/03/15 06:26:17;;;;;;;4.18;1.10;;;2.60;99.90;;;;;;4956954;28;95380;-75
2023/03/15 06:28:45;;;;;;;8.45;1.67;;;2.60;99.90;;;;;;4941713;28;92525;-75
2023/03/15 06:31:13;;;;;;;6.03;1.23;;;2.70;99.90;;;;;;4972907;28;92482;-75
2023/03/15 06:33:49;;;;;;;6.95;1.30;;;2.80;99.90;;;;;;4955449;28;96643;-75
2023/03/15 06:36:16;;;;;;;5.28;1.08;;;2.80;99.90;;;;;;4940407;28;97668;-75
2023/03/15 06:38:43;;;;;;;7.32;1.50;;;2.90;99.90;;;;;;4956682;28;92601;-75
2023/03/15 06:41:14;;;;;;;5.53;1.35;;;3.10;99.90;;;;;;4973077;28;92566;-75
2023/03/15 06:43:41;;;;;;;5.50;1.52;;;3.20;99.90;;;;;;4956472;28;95879;-75
2023/03/15 06:46:08;;;;;;;6.88;1.63;;;3.30;99.90;;;;;;4957882;28;93044;-75
2023/03/15 06:48:35;;;;;;;4.38;1.35;;;3.50;99.90;;;;;;4957036;28;92430;-76
2023/03/15 06:51:04;;;;;;;6.13;1.20;;;3.70;99.90;;;;;;4956977;28;91821;-76
2023/03/15 06:53:31;;;;;;;3.50;1.08;;;3.80;99.90;;;;;;4972822;28;96433;-76
2023/03/15 06:55:58;;;;;;;4.68;1.30;;;3.80;99.90;;;;;;4956249;28;95578;-76
2023/03/15 06:58:25;;;;;;;4.55;1.10;;;3.70;99.90;;;;;;4956548;28;94846;-76
2023/03/15 07:00:52;;;;;;;5.47;1.20;;;3.60;99.90;;;;;;4972602;28;92493;-76
2023/03/15 07:03:21;;;;;;;7.05;1.45;;;3.50;99.90;;;;;;4972860;28;93037;-74
2023/03/15 07:05:51;;;;;;;2.80;1.25;;;3.50;99.90;;;;;;4956005;28;95555;-74
2023/03/15 07:08:18;;;;;;;4.25;1.10;;;3.50;99.90;;;;;;4956695;28;92565;-74
2023/03/15 07:10:47;;;;;;;3.38;1.70;;;3.50;99.90;;;;;;4956199;28;92543;-74
2023/03/15 07:13:14;;;;;;;11.43;2.53;;;3.60;99.90;;;;;;4957558;28;93327;-74
2023/03/15 07:15:41;;;;;;;5.22;1.35;;;3.80;99.90;;;;;;4956807;28;93202;-74
2023/03/15 07:18:08;;;;;;;4.95;1.88;;;4.20;99.90;;;;;;4956270;28;92498;-74
2023/03/15 07:20:35;;;;;;;5.72;1.75;;;4.60;99.90;;;;;;4957795;28;92497;-74
2023/03/15 07:23:03;;;;;;;2.38;1.20;;;5.10;99.90;;;;;;4955867;28;95613;-74
2023/03/15 07:25:30;;;;;;;5.88;2.15;;;5.60;99.90;;;;;;4955982;28;96433;-74
2023/03/15 07:27:59;;;;;;;5.43;1.08;;;6.10;99.90;;;;;;4957225;28;92360;-74
2023/03/15 07:30:26;;;;;;;5.30;1.17;;;6.50;99.90;;;;;;4972344;28;92571;-74
2023/03/15 07:32:53;;;;;;;5.00;1.83;;;6.80;99.90;;;;;;4956982;28;92915;-74
2023/03/15 07:35:20;;;;;;;4.85;1.17;;;6.90;99.90;;;;;;4939581;28;93800;-74
2023/03/15 07:37:48;;;;;;;5.57;2.00;;;7.00;99.90;;;;;;4956957;28;92436;-74
2023/03/15 07:40:15;;;;;;;4.20;1.33;;;7.10;99.90;;;;;;4957633;28;91622;-74
2023/03/15 07:42:42;;;;;;;4.32;1.60;;;7.20;99.90;;;;;;4972133;28;93171;-74
2023/03/15 07:45:11;;;;;;;5.20;1.95;;;7.40;99.90;;;;;;4971865;28;94829;-74
2023/03/15 07:47:37;;;;;;;4.53;2.60;;;7.50;99.90;;;;;;4969764;28;94952;-74
2023/03/15 07:50:05;;;;;;;4.60;3.92;;;7.60;99.90;;;;;;4955494;28;92477;-74
2023/03/15 07:52:32;;;;;;;6.38;5.97;;;7.90;99.90;;;;;;4956865;28;93186;-74
2023/03/15 07:54:59;;;;;;;8.07;6.10;;;8.20;99.90;;;;;;4956466;28;92898;-74
2023/03/15 07:57:26;;;;;;;10.48;9.55;;;8.60;99.90;;;;;;4957129;28;92565;-74
2023/03/15 07:59:54;;;;;;;14.05;13.35;;;9.10;99.90;;;;;;4955573;28;92416;-74
2023/03/15 08:02:22;;;;;;;17.38;16.20;;;9.60;99.90;;;;;;4955087;28;95991;-74
2023/03/15 08:04:50;;;;;;;21.52;20.48;;;10.00;99.90;;;;;;4939152;28;95520;-74
2023/03/15 08:07:17;;;;;;;17.92;16.52;;;10.60;99.90;;;;;;4954710;28;92444;-74
2023/03/15 08:09:45;;;;;;;24.75;23.58;;;11.20;99.90;;;;;;4956298;28;92466;-74
2023/03/15 08:12:12;;;;;;;35.80;34.10;;;11.70;99.90;;;;;;4953491;28;95527;-74
2023/03/15 08:14:39;;;;;;;19.67;18.52;;;12.10;99.90;;;;;;4955979;28;95558;-75
2023/03/15 08:17:11;;;;;;;34.50;33.10;;;12.50;99.90;;;;;;4970706;28;92529;-75
2023/03/15 08:19:38;;;;;;;36.75;35.05;;;12.90;98.70;;;;;;4955195;28;93091;-75
2023/03/15 08:22:05;;;;;;;20.88;19.67;;;13.20;98.40;;;;;;4954257;28;93265;-75
2023/03/15 08:24:33;;;;;;;16.48;15.50;;;13.60;97.80;;;;;;4938018;28;95625;-75
2023/03/15 08:27:00;;;;;;;13.50;12.77;;;13.70;97.00;;;;;;4955925;28;92978;-75
2023/03/15 08:29:28;;;;;;;14.68;13.45;;;14.00;96.80;;;;;;4956170;28;91708;-75
2023/03/15 08:31:55;;;;;;;6.65;4.18;;;14.20;96.30;;;;;;4955574;28;93343;-75
2023/03/15 08:34:22;;;;;;;5.82;1.70;;;14.10;95.40;;;;;;4955862;28;92960;-75
2023/03/15 08:36:50;;;;;;;7.40;1.88;;;14.10;95.00;;;;;;4955404;28;94767;-75
2023/03/15 08:39:17;;;;;;;8.20;1.77;;;13.90;94.70;;;;;;4938582;28;92553;-75
2023/03/15 08:41:46;;;;;;;7.65;1.67;;;13.60;94.70;;;;;;4938543;28;95764;-75
2023/03/15 08:44:13;;;;;;;7.28;1.48;;;13.20;94.60;;;;;;4954115;28;95656;-75
2023/03/15 08:46:40;;;;;;;6.82;2.05;;;12.60;95.30;;;;;;4955116;28;92440;-75
2023/03/15 08:49:07;;;;;;;6.75;1.67;;;12.10;96.10;;;;;;4954282;28;99381;-74
2023/03/15 08:51:34;;;;;;;5.65;1.40;;;11.50;96.40;;;;;;4971155;28;93323;-74
2023/03/15 08:54:04;;;;;;;7.80;1.60;;;11.10;97.30;;;;;;4956304;28;91994;-74
2023/03/15 08:56:31;;;;;;;8.38;1.58;;;10.70;97.60;;;;;;4956104;28;92503;-74
2023/03/15 08:58:58;;;;;;;6.30;1.80;;;10.30;97.80;;;;;;4954625;28;92441;-74
2023/03/15 09:01:25;;;;;;;7.70;1.77;;;9.90;98.80;;;;;;4954595;28;95630;-74
2023/03/15 09:03:52;;;;;;;5.35;1.60;;;9.40;99.30;;;;;;4955882;28;95591;-74
2023/03/15 09:06:19;;;;;;;8.10;1.50;;;9.20;99.90;;;;;;4954043;28;92569;-74
2023/03/15 09:08:46;;;;;;;8.85;1.65;;;9.10;99.90;;;;;;4955863;28;92466;-74
2023/03/15 09:11:13;;;;;;;10.02;1.77;;;9.00;99.90;;;;;;4955399;28;100775;-74
2023/03/15 09:13:40;;;;;;;7.18;1.77;;;8.80;99.90;;;;;;4954682;28;93139;-74
2023/03/15 09:16:07;;;;;;;7.70;1.50;;;8.60;99.90;;;;;;4954203;28;92514;-74
2023/03/15 09:18:33;;;;;;;5.25;1.50;;;8.50;99.90;;;;;;4955157;28;91788;-74
2023/03/15 09:21:00;;;;;;;7.82;1.17;;;8.40;99.90;;;;;;4954302;28;95900;-74
2023/03/15 09:23:27;;;;;;;3.78;1.80;;;8.40;99.90;;;;;;4955687;28;92996;-74
2023/03/15 09:25:54;;;;;;;6.55;1.25;;;8.40;99.90;;;;;;4953113;28;94906;-74
2023/03/15 09:28:21;;;;;;;7.18;1.98;;;8.40;99.90;;;;;;4955661;28;92453;-74
2023/03/15 09:30:48;;;;;;;3.58;1.05;;;8.30;99.90;;;;;;4953941;28;95787;-74
2023/03/15 09:33:15;;;;;;;5.13;1.80;;;8.30;99.90;;;;;;4953992;28;95966;-74
2023/03/15 09:35:42;;;;;;;7.43;1.73;;;8.20;99.90;;;;;;4955708;28;94567;-73
2023/03/15 09:38:09;;;;;;;7.22;1.65;;;8.20;99.90;;;;;;4970539;28;92536;-73
2023/03/15 09:40:43;;;;;;;6.30;1.40;;;8.20;99.90;;;;;;4970679;28;93420;-73
2023/03/15 09:43:16;;;;;;;5.93;1.80;;;8.20;99.90;;;;;;4955481;28;92921;-73
2023/03/15 09:46:29;;;;;;;3.45;1.40;;;8.30;99.90;;;;;;4970755;28;92487;-73
2023/03/15 09:49:03;;;;;;;5.35;1.20;;;8.30;99.10;;;;;;4932002;28;92677;-73
2023/03/15 09:51:40;;;;;;;4.05;1.60;;;8.30;99.40;;;;;;4969194;28;95878;-74
2023/03/15 09:54:35;;;;;;;4.57;1.27;;;8.40;99.70;;;;;;4955280;28;95238;-74
2023/03/15 09:57:07;;;;;;;3.20;1.13;;;8.40;99.90;;;;;;4927405;28;94470;-74
2023/03/15 09:59:40;;;;;;;6.03;1.83;;;8.50;99.80;;;;;;4937841;28;92463;-74
2023/03/15 10:02:22;;;;;;;6.35;1.48;;;8.60;99.40;;;;;;4953725;28;95695;-74
2023/03/15 10:04:55;;;;;;;5.63;1.77;;;8.60;98.80;;;;;;4953628;28;95525;-74
2023/03/15 10:07:22;;;;;;;5.75;1.20;;;8.50;98.50;;;;;;4970416;28;92508;-73
2023/03/15 10:09:49;;;;;;;9.40;1.48;;;8.50;98.80;;;;;;4954215;28;91826;-74
2023/03/15 10:12:29;;;;;;;6.93;1.73;;;8.60;98.60;;;;;;4956371;28;94352;-74
2023/03/15 10:15:20;;;;;;;3.78;1.10;;;8.70;98.30;;;;;;4958561;28;92529;-74
2023/03/15 10:18:09;;;;;;;6.30;1.52;;;8.80;98.50;;;;;;4957537;28;94779;-74
2023/03/15 10:20:48;;;;;;;5.45;1.50;;;8.80;98.70;;;;;;4958768;28;92412;-74
2023/03/15 10:23:21;;;;;;;6.63;1.60;;;8.80;98.60;;;;;;4958388;28;93280;-74
2023/03/15 10:25:50;;;;;;;6.75;1.50;;;8.80;97.60;;;;;;4958601;28;92925;-74
2023/03/15 10:28:27;;;;;;;6.07;1.23;;;8.70;97.20;;;;;;4958063;28;92924;-74
2023/03/15 10:30:59;;;;;;;3.58;1.50;;;8.80;97.60;;;;;;4958524;28;92543;-74
2023/03/15 10:33:34;;;;;;;7.20;2.22;;;8.90;98.00;;;;;;4956372;28;95788;-74
2023/03/15 10:36:12;;;;;;;10.02;1.52;;;9.10;98.10;;;;;;4958472;28;92759;-74
2023/03/15 10:38:40;;;;;;;3.80;1.17;;;9.10;97.80;;;;;;4973254;28;92462;-74
2023/03/15 10:41:09;;;;;;;6.03;1.10;;;9.10;97.20;;;;;;4958098;28;92436;-74
2023/03/15 10:43:40;;;;;;;3.78;1.00;;;9.20;97.00;;;;;;4957036;28;95798;-74
2023/03/15 10:46:20;;;;;;;4.95;1.13;;;9.10;97.00;;;;;;4956264;28;104971;-74
2023/03/15 10:49:11;;;;;;;4.45;1.33;;;9.10;97.40;;;;;;4958312;28;92470;-74
2023/03/15 10:51:43;;;;;;;6.18;1.52;;;9.10;96.90;;;;;;4958204;28;92500;-74
2023/03/15 10:54:12;;;;;;;3.28;1.27;;;9.10;96.80;;;;;;4958001;28;93865;-74
2023/03/15 10:56:58;;;;;;;5.68;1.20;;;9.20;96.90;;;;;;4957899;28;93047;-74
2023/03/15 10:59:27;;;;;;;5.82;1.20;;;9.40;95.80;;;;;;4956435;28;92543;-74
2023/03/15 11:02:19;;;;;;;2.75;1.02;;;9.50;95.90;;;;;;4958168;28;91779;-74
2023/03/15 11:04:59;;;;;;;5.95;1.15;;;9.80;95.60;;;;;;4957737;28;93336;-74
2023/03/15 11:07:28;;;;;;;2.85;1.02;;;10.00;96.10;;;;;;4972608;28;92575;-74
2023/03/15 11:09:59;;;;;;;5.43;1.08;;;10.20;94.50;;;;;;4956669;28;94897;-74
2023/03/15 11:12:32;;;;;;;3.83;1.10;;;10.60;94.80;;;;;;4972696;28;92538;-74
2023/03/15 11:15:12;;;;;;;3.22;1.63;;;10.90;94.50;;;;;;4957754;28;92445;-74
2023/03/15 11:17:48;;;;;;;9.55;1.17;;;11.10;93.50;;;;;;4955655;28;95577;-74
2023/03/15 11:20:35;;;;;;;2.78;1.10;;;11.20;93.50;;;;;;4956357;28;92509;-76
2023/03/15 11:23:15;;;;;;;6.35;1.13;;;11.40;93.40;;;;;;4940226;28;92454;-74
2023/03/15 11:25:42;;;;;;;3.65;1.48;;;11.50;93.20;;;;;;4957288;28;92991;-74
2023/03/15 11:28:23;;;;;;;5.35;1.00;;;11.50;92.80;;;;;;4940022;28;95678;-74
2023/03/15 11:30:50;;;;;;;5.13;0.98;;;11.70;93.20;;;;;;4957631;28;92507;-74
2023/03/15 11:33:32;;;;;;;4.78;1.20;;;11.80;93.10;;;;;;4957498;28;93476;-74
2023/03/15 11:36:04;;;;;;;4.03;1.20;;;12.00;92.80;;;;;;4956185;28;94881;-74
2023/03/15 11:38:36;;;;;;;3.83;1.42;;;12.00;92.80;;;;;;4955661;28;95431;-74
2023/03/15 11:41:16;;;;;;;8.07;1.60;;;11.90;92.10;;;;;;4956330;28;92584;-74
2023/03/15 11:44:18;;;;;;;3.03;1.20;;;11.90;91.60;;;;;;4955428;28;92467;-74
2023/03/15 11:47:09;;;;;;;3.72;1.15;;;11.90;91.10;;;;;;4928976;28;93245;-74
2023/03/15 11:49:56;;;;;;;4.85;1.48;;;11.70;90.80;;;;;;4957037;28;92927;-74
2023/03/15 11:52:26;;;;;;;2.75;1.10;;;11.80;90.00;;;;;;4972010;28;92991;-74
2023/03/15 11:55:02;;;;;;;3.33;1.13;;;12.00;90.50;;;;;;4972264;28;91798;-74
2023/03/15 11:57:35;;;;;;;2.30;1.30;;;12.20;90.60;;;;;;4956905;28;93173;-74
2023/03/15 12:00:33;;;;;;;2.90;1.00;;;12.00;85.50;;;;;;4956714;28;93468;-74
2023/03/15 12:03:38;;;;;;;4.72;1.33;;;11.90;82.30;;;;;;4954385;28;94824;-74
2023/03/15 12:06:36;;;;;;;5.63;1.98;;;11.60;85.20;;;;;;4952804;28;92445;-74
2023/03/15 12:09:32;;;;;;;2.13;1.00;;;11.40;87.10;;;;;;4956834;28;94148;-74
2023/03/15 12:12:05;;;;;;;4.53;1.27;;;11.30;87.70;;;;;;4956769;28;93115;-74
2023/03/15 12:14:34;;;;;;;4.23;1.10;;;11.20;88.60;;;;;;4971860;28;92429;-74
2023/03/15 12:17:23;;;;;;;3.40;1.08;;;11.30;85.10;;;;;;4956978;28;93038;-74
2023/03/15 12:20:19;;;;;;;4.65;1.23;;;11.40;81.80;;;;;;4956517;28;92410;-74
2023/03/15 12:22:53;;;;;;;4.97;1.25;;;11.40;82.90;;;;;;4933557;28;95778;-74
2023/03/15 12:25:42;;;;;;;1.63;1.02;;;11.30;84.00;;;;;;4956957;28;92517;-74
2023/03/15 12:28:35;;;;;;;6.90;1.35;;;11.50;84.70;;;;;;4970309;28;92493;-74
2023/03/15 12:31:05;;;;;;;2.75;0.98;;;11.60;84.80;;;;;;4955421;28;95642;-74
2023/03/15 12:33:53;;;;;;;3.88;1.05;;;11.60;85.40;;;;;;4970367;28;98032;-74
2023/03/15 12:36:33;;;;;;;4.22;1.05;;;11.80;84.30;;;;;;4971547;28;92347;-74
2023/03/15 12:39:34;;;;;;;3.92;1.10;;;11.90;83.80;;;;;;4956318;28;92596;-74
2023/03/15 12:42:01;;;;;;;3.65;0.90;;;11.90;83.00;;;;;;4956347;28;93230;-74
2023/03/15 12:44:30;;;;;;;3.72;1.48;;;11.80;84.00;;;;;;4971168;28;93121;-74
2023/03/15 12:47:02;;;;;;;6.22;1.45;;;11.90;84.00;;;;;;4956321;28;92531;-74
2023/03/15 12:49:34;;;;;;;2.97;0.93;;;11.90;83.90;;;;;;4956267;28;91729;-74
2023/03/15 12:52:10;;;;;;;1.35;0.93;;;11.90;83.90;;;;;;4954788;28;95927;-74
2023/03/15 12:54:50;;;;;;;3.90;0.80;;;11.90;84.50;;;;;;4954405;28;95699;-74
2023/03/15 12:57:23;;;;;;;2.42;1.15;;;11.80;83.50;;;;;;4954013;28;94906;-74
2023/03/15 13:00:09;;;;;;;4.13;0.80;;;11.90;83.50;;;;;;4956227;28;92465;-74
2023/03/15 13:02:43;;;;;;;3.13;1.15;;;11.90;83.80;;;;;;4955878;28;93333;-76
2023/03/15 13:05:35;;;;;;;4.43;0.98;;;11.90;83.90;;;;;;4938115;28;95978;-74
2023/03/15 13:08:22;;;;;;;5.03;1.30;;;11.90;83.00;;;;;;4954925;28;92667;-74
2023/03/15 13:10:59;;;;;;;3.83;1.40;;;11.80;81.90;;;;;;4955900;28;92439;-74
2023/03/15 13:13:44;;;;;;;5.00;1.17;;;11.60;81.20;;;;;;4970954;28;94972;-74
2023/03/15 13:16:43;;;;;;;2.38;1.00;;;11.70;83.20;;;;;;4971111;28;93069;-74
2023/03/15 13:19:13;;;;;;;5.25;1.15;;;11.60;83.70;;;;;;4955219;28;93175;-74
2023/03/15 13:22:03;;;;;;;4.88;1.38;;;11.50;85.00;;;;;;4955814;28;92445;-74
2023/03/15 13:25:08;;;;;;;4.47;1.10;;;11.50;84.00;;;;;;4954598;28;95687;-74
2023/03/15 13:27:55;;;;;;;4.20;1.00;;;11.40;81.60;;;;;;4946298;28;95323;-74